createdAt,value
2023-04-11T00:00:21.778Z,8.49
2023-04-11T00:01:13.165Z,8.47
2023-04-11T00:02:04.801Z,8.56
2023-04-11T00:03:00.134Z,8.61
2023-04-11T00:03:53.147Z,8.56
2023-04-11T00:04:44.891Z,8.63
2023-04-11T00:05:36.488Z,8.47
2023-04-11T00:06:27.897Z,8.51
2023-04-11T00:07:21.735Z,8.46
2023-04-11T00:08:15.078Z,8.38
2023-04-11T00:09:06.709Z,8.43
2023-04-11T00:10:02.110Z,8.35
2023-04-11T00:10:53.532Z,8.39
2023-04-11T00:11:45.280Z,8.54
2023-04-11T00:12:36.941Z,8.43
2023-04-11T00:13:28.624Z,8.39
2023-04-11T00:14:20.403Z,8.32
2023-04-11T00:15:12.051Z,8.40
2023-04-11T00:16:03.727Z,8.43
2023-04-11T00:16:55.704Z,8.43
2023-04-11T00:17:47.319Z,8.27
2023-04-11T00:18:39.274Z,8.27
2023-04-11T00:19:34.733Z,8.33
2023-04-11T00:20:26.460Z,8.40
2023-04-11T00:21:18.135Z,8.22
2023-04-11T00:22:10.092Z,8.23
2023-04-11T00:23:01.912Z,8.33
2023-04-11T00:23:54.357Z,8.34
2023-04-11T00:24:45.845Z,8.34
2023-04-11T00:25:37.455Z,8.25
2023-04-11T00:26:29.032Z,8.34
2023-04-11T00:27:21.899Z,8.40
2023-04-11T00:28:13.551Z,8.45
2023-04-11T00:29:10.488Z,8.31
2023-04-11T00:30:02.013Z,8.23
2023-04-11T00:30:53.417Z,8.12
2023-04-11T00:31:45.092Z,8.11
2023-04-11T00:32:36.576Z,8.18
2023-04-11T00:33:30.368Z,8.18
2023-04-11T00:34:22.141Z,8.27
2023-04-11T00:35:13.571Z,8.30
2023-04-11T00:36:05.483Z,8.26
2023-04-11T00:37:00.189Z,8.32
2023-04-11T00:37:56.366Z,8.34
2023-04-11T00:38:48.106Z,8.35
2023-04-11T00:39:40.102Z,8.39
2023-04-11T00:40:34.279Z,8.41
2023-04-11T00:41:25.747Z,8.47
2023-04-11T00:42:17.305Z,8.53
2023-04-11T00:43:10.037Z,8.51
2023-04-11T00:44:01.646Z,8.53
2023-04-11T00:44:53.402Z,8.48
2023-04-11T00:45:45.508Z,8.38
2023-04-11T00:46:39.637Z,8.42
2023-04-11T00:47:33.383Z,8.39
2023-04-11T00:48:28.189Z,8.26
2023-04-11T00:49:19.891Z,8.32
2023-04-11T00:50:14.157Z,8.30
2023-04-11T00:51:06.079Z,8.34
2023-04-11T00:51:59.164Z,8.41
2023-04-11T00:52:53.059Z,8.37
2023-04-11T00:53:45.655Z,8.32
2023-04-11T00:54:40.242Z,8.34
2023-04-11T00:55:32.941Z,8.42
2023-04-11T00:56:24.760Z,8.46
2023-04-11T00:57:16.777Z,8.55
2023-04-11T00:58:08.790Z,8.63
2023-04-11T00:59:00.436Z,8.52
2023-04-11T00:59:52.147Z,8.57
2023-04-11T01:00:44.588Z,8.61
2023-04-11T01:01:39.144Z,8.67
2023-04-11T01:02:30.957Z,8.66
2023-04-11T01:03:23.053Z,8.65
2023-04-11T01:04:17.331Z,8.64
2023-04-11T01:05:11.072Z,8.47
2023-04-11T01:06:07.613Z,8.34
2023-04-11T01:07:06.188Z,8.40
2023-04-11T01:07:59.822Z,8.31
2023-04-11T01:08:52.278Z,8.24
2023-04-11T01:09:46.146Z,8.19
2023-04-11T01:10:42.601Z,8.16
2023-04-11T01:11:34.275Z,8.14
2023-04-11T01:12:26.118Z,8.18
2023-04-11T01:13:18.826Z,8.11
2023-04-11T01:14:12.297Z,8.04
2023-04-11T01:15:06.300Z,8.00
2023-04-11T01:15:58.238Z,7.96
2023-04-11T01:16:50.931Z,7.93
2023-04-11T01:17:43.029Z,7.95
2023-04-11T01:18:34.686Z,7.92
2023-04-11T01:19:29.371Z,7.99
2023-04-11T01:20:22.045Z,7.99
2023-04-11T01:21:14.561Z,7.99
2023-04-11T01:22:08.719Z,8.24
2023-04-11T01:23:03.219Z,8.11
2023-04-11T01:23:56.703Z,8.06
2023-04-11T01:24:48.889Z,8.08
2023-04-11T01:25:40.791Z,7.96
2023-04-11T01:26:32.647Z,7.98
2023-04-11T01:27:24.340Z,8.05
2023-04-11T01:28:15.780Z,8.07
2023-04-11T01:29:07.332Z,8.09
2023-04-11T01:29:58.781Z,8.10
2023-04-11T01:30:50.635Z,8.17
2023-04-11T01:31:42.194Z,8.06
2023-04-11T01:32:36.000Z,8.07
2023-04-11T01:33:27.870Z,7.91
2023-04-11T01:34:21.824Z,7.90
2023-04-11T01:35:14.434Z,8.00
2023-04-11T01:36:08.446Z,7.91
2023-04-11T01:37:00.644Z,7.80
2023-04-11T01:37:57.467Z,7.83
2023-04-11T01:38:49.378Z,7.85
2023-04-11T01:39:41.316Z,7.79
2023-04-11T01:40:33.354Z,7.73
2023-04-11T01:41:26.853Z,7.69
2023-04-11T01:42:22.287Z,7.79
2023-04-11T01:43:16.943Z,7.78
2023-04-11T01:44:08.470Z,7.74
2023-04-11T01:45:02.216Z,7.77
2023-04-11T01:45:53.701Z,7.83
2023-04-11T01:46:46.525Z,7.80
2023-04-11T01:47:38.113Z,7.80
2023-04-11T01:48:31.813Z,7.79
2023-04-11T01:49:27.799Z,7.79
2023-04-11T01:50:19.612Z,7.77
2023-04-11T01:51:11.626Z,7.77
2023-04-11T01:52:03.148Z,7.81
2023-04-11T01:52:54.641Z,7.79
2023-04-11T01:53:47.588Z,7.79
2023-04-11T01:54:39.184Z,7.85
2023-04-11T01:55:31.238Z,7.81
2023-04-11T01:56:23.147Z,7.82
2023-04-11T01:57:16.828Z,7.85
2023-04-11T01:58:08.263Z,7.85
2023-04-11T01:58:59.682Z,7.84
2023-04-11T01:59:51.196Z,7.97
2023-04-11T02:00:42.675Z,7.88
2023-04-11T02:01:36.116Z,7.81
2023-04-11T02:02:27.878Z,7.84
2023-04-11T02:03:20.996Z,7.82
2023-04-11T02:04:15.480Z,7.73
2023-04-11T02:05:09.530Z,7.67
2023-04-11T02:06:01.009Z,7.72
2023-04-11T02:06:54.132Z,7.77
2023-04-11T02:07:51.039Z,7.71
2023-04-11T02:08:45.760Z,7.77
2023-04-11T02:09:38.285Z,7.75
2023-04-11T02:10:29.790Z,7.71
2023-04-11T02:11:21.334Z,7.69
2023-04-11T02:12:13.931Z,7.67
2023-04-11T02:13:05.606Z,7.63
2023-04-11T02:13:57.357Z,7.64
2023-04-11T02:14:49.850Z,7.61
2023-04-11T02:15:41.431Z,7.62
2023-04-11T02:16:50.077Z,7.61
2023-04-11T02:17:45.391Z,7.64
2023-04-11T02:18:38.209Z,7.64
2023-04-11T02:19:30.934Z,7.67
2023-04-11T02:20:23.083Z,7.62
2023-04-11T02:21:14.535Z,7.64
2023-04-11T02:22:06.141Z,7.68
2023-04-11T02:22:58.899Z,7.68
2023-04-11T02:23:50.625Z,7.64
2023-04-11T02:24:42.131Z,7.65
2023-04-11T02:25:33.800Z,7.72
2023-04-11T02:26:26.816Z,7.71
2023-04-11T02:27:24.749Z,7.67
2023-04-11T02:28:19.409Z,7.68
2023-04-11T02:29:10.915Z,7.63
2023-04-11T02:30:05.793Z,7.61
2023-04-11T02:30:57.385Z,7.60
2023-04-11T02:31:49.617Z,7.62
2023-04-11T02:32:42.478Z,7.64
2023-04-11T02:33:34.003Z,7.68
2023-04-11T02:34:25.574Z,7.72
2023-04-11T02:35:18.064Z,7.68
2023-04-11T02:36:09.595Z,7.76
2023-04-11T02:37:01.122Z,7.77
2023-04-11T02:37:52.560Z,7.73
2023-04-11T02:38:43.988Z,7.70
2023-04-11T02:39:35.525Z,7.72
2023-04-11T02:40:26.952Z,7.62
2023-04-11T02:41:18.458Z,7.62
2023-04-11T02:42:10.019Z,7.63
2023-04-11T02:43:01.584Z,7.69
2023-04-11T02:43:54.191Z,7.65
2023-04-11T02:44:45.947Z,7.64
2023-04-11T02:45:37.658Z,7.65
2023-04-11T02:46:29.392Z,7.65
2023-04-11T02:47:25.058Z,7.65
2023-04-11T02:48:16.576Z,7.62
2023-04-11T02:49:11.058Z,7.66
2023-04-11T02:50:03.156Z,7.66
2023-04-11T02:51:05.203Z,7.74
2023-04-11T02:51:56.631Z,7.83
2023-04-11T02:52:49.159Z,7.85
2023-04-11T02:53:43.797Z,7.88
2023-04-11T02:54:39.269Z,7.92
2023-04-11T02:55:30.669Z,7.95
2023-04-11T02:56:24.277Z,7.95
2023-04-11T02:57:19.828Z,8.02
2023-04-11T02:58:17.809Z,8.04
2023-04-11T02:59:10.566Z,8.02
2023-04-11T03:00:04.738Z,8.01
2023-04-11T03:01:07.936Z,8.04
2023-04-11T03:02:01.245Z,8.05
2023-04-11T03:02:56.974Z,8.10
2023-04-11T03:03:49.856Z,8.12
2023-04-11T03:04:41.672Z,8.16
2023-04-11T03:05:40.191Z,8.12
2023-04-11T03:06:31.674Z,8.17
2023-04-11T03:07:27.357Z,8.21
2023-04-11T03:08:22.107Z,8.23
2023-04-11T03:09:16.840Z,8.20
2023-04-11T03:10:10.295Z,8.21
2023-04-11T03:11:02.587Z,8.16
2023-04-11T03:11:54.155Z,8.14
2023-04-11T03:12:48.670Z,8.17
2023-04-11T03:13:43.877Z,8.22
2023-04-11T03:14:35.358Z,8.23
2023-04-11T03:15:27.904Z,8.27
2023-04-11T03:16:19.968Z,8.25
2023-04-11T03:17:11.770Z,8.24
2023-04-11T03:18:03.390Z,8.23
2023-04-11T03:18:55.207Z,8.26
2023-04-11T03:19:47.639Z,8.30
2023-04-11T03:20:41.548Z,8.32
2023-04-11T03:21:35.548Z,8.31
2023-04-11T03:22:27.774Z,8.31
2023-04-11T03:23:19.281Z,8.32
2023-04-11T03:24:12.647Z,8.34
2023-04-11T03:25:06.370Z,8.31
2023-04-11T03:26:00.535Z,8.26
2023-04-11T03:26:52.729Z,8.26
2023-04-11T03:27:47.760Z,8.26
2023-04-11T03:28:39.971Z,8.31
2023-04-11T03:29:32.584Z,8.28
2023-04-11T03:30:33.454Z,8.33
2023-04-11T03:31:26.745Z,8.29
2023-04-11T03:32:19.351Z,8.26
2023-04-11T03:33:10.856Z,8.22
2023-04-11T03:34:02.381Z,8.24
2023-04-11T03:34:54.466Z,8.21
2023-04-11T03:35:47.229Z,8.20
2023-04-11T03:36:38.724Z,8.17
2023-04-11T03:37:30.350Z,8.13
2023-04-11T03:38:21.972Z,8.13
2023-04-11T03:39:13.546Z,8.17
2023-04-11T03:40:08.297Z,8.17
2023-04-11T03:41:01.773Z,8.11
2023-04-11T03:41:53.259Z,8.10
2023-04-11T03:42:50.490Z,8.09
2023-04-11T03:43:47.319Z,8.08
2023-04-11T03:44:39.721Z,8.07
2023-04-11T03:45:31.321Z,8.06
2023-04-11T03:46:26.187Z,8.01
2023-04-11T03:47:17.934Z,8.01
2023-04-11T03:48:09.810Z,8.00
2023-04-11T03:49:30.632Z,7.99
2023-04-11T03:50:22.151Z,7.98
2023-04-11T03:51:19.387Z,7.96
2023-04-11T03:52:19.085Z,7.92
2023-04-11T03:53:14.165Z,7.90
2023-04-11T03:54:08.783Z,7.84
2023-04-11T03:55:05.995Z,7.83
2023-04-11T03:55:58.254Z,7.82
2023-04-11T03:56:57.276Z,7.79
2023-04-11T03:57:50.585Z,7.79
2023-04-11T03:58:43.031Z,7.80
2023-04-11T03:59:37.235Z,7.83
2023-04-11T04:00:32.785Z,7.84
2023-04-11T04:01:32.290Z,7.88
2023-04-11T04:02:27.695Z,7.87
2023-04-11T04:03:19.741Z,7.83
2023-04-11T04:04:13.775Z,7.81
2023-04-11T04:05:09.466Z,7.81
2023-04-11T04:06:02.784Z,7.79
2023-04-11T04:06:56.735Z,7.79
2023-04-11T04:07:55.893Z,7.77
2023-04-11T04:08:59.721Z,7.77
2023-04-11T04:09:54.400Z,7.77
2023-04-11T04:10:47.203Z,7.79
2023-04-11T04:11:39.532Z,7.80
2023-04-11T04:12:31.108Z,7.82
2023-04-11T04:13:33.942Z,7.86
2023-04-11T04:14:35.864Z,7.88
2023-04-11T04:15:27.358Z,7.88
2023-04-11T04:16:19.818Z,7.89
2023-04-11T04:17:20.069Z,7.89
2023-04-11T04:18:12.291Z,7.91
2023-04-11T04:19:11.358Z,7.92
2023-04-11T04:20:07.029Z,7.93
2023-04-11T04:21:03.709Z,7.98
2023-04-11T04:21:58.145Z,8.01
2023-04-11T04:22:55.600Z,8.00
2023-04-11T04:23:55.965Z,8.02
2023-04-11T04:24:53.842Z,8.03
2023-04-11T04:25:52.751Z,8.01
2023-04-11T04:26:49.956Z,7.99
2023-04-11T04:28:03.281Z,7.93
2023-04-11T04:29:04.567Z,7.96
2023-04-11T04:30:15.679Z,7.95
2023-04-11T04:31:36.544Z,7.89
2023-04-11T04:32:31.391Z,7.89
2023-04-11T04:33:32.942Z,7.86
2023-04-11T04:34:29.249Z,7.88
2023-04-11T04:35:23.490Z,7.87
2023-04-11T04:36:17.803Z,7.84
2023-04-11T04:37:21.687Z,7.83
2023-04-11T04:38:18.917Z,7.83
2023-04-11T04:39:17.469Z,7.84
2023-04-11T04:40:13.896Z,7.82
2023-04-11T04:41:15.664Z,7.81
2023-04-11T04:42:14.851Z,7.81
2023-04-11T04:43:09.206Z,7.81
2023-04-11T04:44:09.965Z,7.83
2023-04-11T04:45:11.350Z,7.85
2023-04-11T04:46:03.701Z,7.85
2023-04-11T04:47:03.780Z,7.87
2023-04-11T04:47:56.479Z,7.89
2023-04-11T04:48:47.941Z,7.89
2023-04-11T04:49:39.338Z,7.89
2023-04-11T04:50:30.875Z,7.88
2023-04-11T04:51:25.323Z,7.90
2023-04-11T04:52:17.004Z,7.92
2023-04-11T04:53:08.990Z,7.94
2023-04-11T04:54:05.135Z,7.96
2023-04-11T04:54:58.326Z,7.97
2023-04-11T04:55:51.052Z,7.97
2023-04-11T04:56:44.701Z,7.99
2023-04-11T04:57:37.322Z,8.01
2023-04-11T04:58:29.036Z,7.99
2023-04-11T04:59:23.206Z,8.02
2023-04-11T05:00:23.244Z,7.99
2023-04-11T05:01:22.452Z,8.03
2023-04-11T05:02:17.177Z,8.03
2023-04-11T05:03:10.779Z,8.03
2023-04-11T05:04:02.940Z,8.04
2023-04-11T05:05:17.983Z,8.03
2023-04-11T05:06:09.802Z,8.05
2023-04-11T05:07:02.542Z,8.06
2023-04-11T05:07:55.881Z,8.03
2023-04-11T05:08:48.508Z,8.03
2023-04-11T05:09:40.683Z,8.01
2023-04-11T05:10:37.543Z,8.00
2023-04-11T05:11:38.192Z,8.00
2023-04-11T05:12:29.975Z,7.99
2023-04-11T05:13:26.999Z,8.03
2023-04-11T05:14:18.542Z,8.02
2023-04-11T05:15:11.674Z,8.00
2023-04-11T05:16:07.044Z,8.03
2023-04-11T05:16:59.073Z,8.03
2023-04-11T05:17:50.812Z,8.04
2023-04-11T05:18:43.514Z,8.04
2023-04-11T05:19:35.636Z,8.09
2023-04-11T05:20:29.582Z,8.08
2023-04-11T05:21:22.341Z,8.09
2023-04-11T05:22:16.413Z,8.09
2023-04-11T05:23:14.707Z,8.10
2023-04-11T05:24:06.278Z,8.11
2023-04-11T05:25:04.246Z,8.10
2023-04-11T05:25:58.309Z,8.09
2023-04-11T05:26:52.104Z,8.06
2023-04-11T05:27:44.995Z,8.07
2023-04-11T05:28:37.285Z,8.09
2023-04-11T05:29:33.560Z,8.12
2023-04-11T05:30:26.725Z,8.10
2023-04-11T05:31:19.224Z,8.11
2023-04-11T05:32:11.012Z,8.09
2023-04-11T05:33:02.518Z,8.11
2023-04-11T05:33:54.728Z,8.11
2023-04-11T05:34:59.023Z,8.09
2023-04-11T05:36:02.810Z,8.09
2023-04-11T05:36:54.274Z,8.08
2023-04-11T05:37:46.030Z,8.11
2023-04-11T05:38:37.488Z,8.09
2023-04-11T05:39:29.124Z,8.07
2023-04-11T05:40:21.072Z,8.09
2023-04-11T05:41:15.890Z,8.10
2023-04-11T05:42:08.095Z,8.09
2023-04-11T05:42:59.868Z,8.10
2023-04-11T05:43:51.663Z,8.06
2023-04-11T05:44:44.792Z,8.07
2023-04-11T05:45:36.336Z,8.07
2023-04-11T05:46:33.258Z,8.08
2023-04-11T05:47:24.917Z,8.09
2023-04-11T05:48:19.500Z,8.12
2023-04-11T05:49:12.599Z,8.13
2023-04-11T05:50:04.521Z,8.13
2023-04-11T05:50:57.646Z,8.12
2023-04-11T05:51:49.300Z,8.12
2023-04-11T05:52:40.723Z,8.11
2023-04-11T05:53:33.242Z,8.13
2023-04-11T05:54:36.018Z,8.10
2023-04-11T05:55:27.514Z,8.10
2023-04-11T05:56:19.209Z,8.09
2023-04-11T05:57:11.116Z,8.07
2023-04-11T05:58:04.975Z,8.12
2023-04-11T05:59:01.634Z,8.11
2023-04-11T05:59:53.703Z,8.16
2023-04-11T06:00:46.056Z,8.17
2023-04-11T06:01:39.828Z,8.15
2023-04-11T06:02:31.804Z,8.17
2023-04-11T06:03:23.624Z,8.21
2023-04-11T06:04:15.474Z,8.18
2023-04-11T06:05:11.880Z,8.19
2023-04-11T06:06:03.913Z,8.22
2023-04-11T06:06:55.918Z,8.23
2023-04-11T06:07:49.838Z,8.22
2023-04-11T06:08:41.766Z,8.23
2023-04-11T06:09:36.649Z,8.20
2023-04-11T06:10:30.368Z,8.19
2023-04-11T06:11:22.468Z,8.21
2023-04-11T06:12:13.883Z,8.27
2023-04-11T06:13:07.931Z,8.31
2023-04-11T06:13:59.329Z,8.32
2023-04-11T06:14:50.788Z,8.33
2023-04-11T06:15:42.426Z,8.33
2023-04-11T06:16:36.651Z,8.32
2023-04-11T06:17:28.369Z,8.36
2023-04-11T06:18:19.933Z,8.37
2023-04-11T06:19:11.551Z,8.42
2023-04-11T06:20:06.211Z,8.46
2023-04-11T06:21:00.615Z,8.53
2023-04-11T06:21:52.152Z,8.57
2023-04-11T06:22:44.089Z,8.57
2023-04-11T06:23:35.578Z,8.57
2023-04-11T06:24:38.612Z,8.52
2023-04-11T06:25:30.165Z,8.57
2023-04-11T06:26:21.688Z,8.58
2023-04-11T06:27:13.929Z,8.57
2023-04-11T06:28:05.827Z,8.55
2023-04-11T06:28:57.272Z,8.54
2023-04-11T06:29:48.846Z,8.54
2023-04-11T06:30:40.818Z,8.52
2023-04-11T06:31:33.414Z,8.54
2023-04-11T06:32:27.923Z,8.54
2023-04-11T06:33:20.470Z,8.51
2023-04-11T06:34:11.980Z,8.51
2023-04-11T06:35:03.911Z,8.54
2023-04-11T06:35:55.515Z,8.55
2023-04-11T06:36:50.178Z,8.53
2023-04-11T06:37:42.306Z,8.51
2023-04-11T06:38:36.500Z,8.45
2023-04-11T06:39:27.931Z,8.43
2023-04-11T06:40:20.618Z,8.45
2023-04-11T06:41:12.338Z,8.48
2023-04-11T06:42:06.301Z,8.48
2023-04-11T06:43:00.098Z,8.52
2023-04-11T06:43:51.752Z,8.53
2023-04-11T06:44:43.369Z,8.53
2023-04-11T06:45:37.155Z,8.53
2023-04-11T06:46:28.635Z,8.47
2023-04-11T06:47:20.466Z,8.49
2023-04-11T06:48:13.935Z,8.52
2023-04-11T06:49:08.343Z,8.57
2023-04-11T06:49:59.914Z,8.55
2023-04-11T06:50:51.391Z,8.52
2023-04-11T06:51:43.175Z,8.61
2023-04-11T06:52:34.658Z,8.61
2023-04-11T06:53:26.434Z,8.56
2023-04-11T06:54:18.653Z,8.63
2023-04-11T06:55:12.055Z,8.62
2023-04-11T06:56:03.636Z,8.66
2023-04-11T06:56:57.407Z,8.74
2023-04-11T06:57:49.287Z,8.72
2023-04-11T06:58:42.138Z,8.73
2023-04-11T06:59:34.737Z,8.75
2023-04-11T07:00:28.703Z,8.76
2023-04-11T07:01:25.470Z,8.71
2023-04-11T07:02:17.223Z,8.66
2023-04-11T07:03:12.638Z,8.61
2023-04-11T07:04:05.081Z,8.60
2023-04-11T07:04:57.124Z,8.57
2023-04-11T07:05:51.520Z,8.61
2023-04-11T07:06:46.329Z,8.61
2023-04-11T07:07:37.880Z,8.61
2023-04-11T07:08:31.348Z,8.63
2023-04-11T07:09:24.132Z,8.69
2023-04-11T07:10:15.698Z,8.75
2023-04-11T07:11:07.530Z,8.77
2023-04-11T07:11:59.321Z,8.78
2023-04-11T07:12:51.077Z,8.82
2023-04-11T07:13:42.480Z,8.85
2023-04-11T07:14:33.954Z,8.90
2023-04-11T07:15:25.363Z,8.91
2023-04-11T07:16:16.907Z,8.92
2023-04-11T07:17:11.021Z,8.93
2023-04-11T07:18:02.668Z,8.97
2023-04-11T07:18:58.813Z,8.97
2023-04-11T07:19:50.767Z,8.95
2023-04-11T07:20:42.216Z,8.98
2023-04-11T07:21:33.710Z,9.06
2023-04-11T07:22:25.123Z,9.12
2023-04-11T07:23:16.591Z,9.10
2023-04-11T07:24:10.745Z,9.17
2023-04-11T07:25:06.122Z,9.18
2023-04-11T07:25:57.739Z,9.22
2023-04-11T07:26:51.813Z,9.24
2023-04-11T07:27:43.549Z,9.28
2023-04-11T07:28:38.687Z,9.29
2023-04-11T07:29:30.825Z,9.36
2023-04-11T07:30:22.985Z,9.33
2023-04-11T07:31:16.290Z,9.29
2023-04-11T07:32:07.886Z,9.25
2023-04-11T07:32:59.420Z,9.27
2023-04-11T07:33:51.501Z,9.30
2023-04-11T07:34:42.926Z,9.39
2023-04-11T07:35:34.977Z,9.39
2023-04-11T07:36:26.664Z,9.42
2023-04-11T07:37:18.184Z,9.46
2023-04-11T07:38:10.281Z,9.56
2023-04-11T07:39:09.462Z,9.68
2023-04-11T07:40:01.040Z,9.70
2023-04-11T07:40:57.631Z,9.72
2023-04-11T07:41:53.616Z,9.76
2023-04-11T07:42:46.375Z,9.78
2023-04-11T07:43:38.166Z,9.79
2023-04-11T07:44:32.869Z,9.77
2023-04-11T07:45:24.444Z,9.77
2023-04-11T07:46:16.052Z,9.81
2023-04-11T07:47:07.586Z,9.60
2023-04-11T07:48:02.862Z,9.60
2023-04-11T07:48:54.356Z,9.70
2023-04-11T07:49:45.789Z,9.80
2023-04-11T07:50:37.322Z,9.89
2023-04-11T07:51:28.976Z,9.99
2023-04-11T07:52:20.702Z,10.07
2023-04-11T07:53:13.169Z,10.06
2023-04-11T07:54:06.663Z,10.11
2023-04-11T07:54:58.200Z,10.09
2023-04-11T07:55:51.281Z,10.04
2023-04-11T07:56:42.907Z,10.03
2023-04-11T07:57:34.396Z,9.96
2023-04-11T07:58:25.904Z,10.03
2023-04-11T07:59:17.327Z,9.88
2023-04-11T08:00:18.621Z,10.01
2023-04-11T08:01:21.568Z,10.11
2023-04-11T08:02:13.317Z,10.00
2023-04-11T08:03:06.550Z,10.10
2023-04-11T08:03:58.592Z,10.10
2023-04-11T08:04:50.853Z,10.23
2023-04-11T08:05:42.465Z,10.28
2023-04-11T08:06:34.341Z,10.40
2023-04-11T08:07:25.829Z,10.55
2023-04-11T08:08:17.430Z,10.70
2023-04-11T08:09:08.864Z,10.71
2023-04-11T08:10:00.364Z,10.74
2023-04-11T08:10:52.368Z,10.76
2023-04-11T08:11:48.358Z,10.78
2023-04-11T08:12:42.518Z,10.65
2023-04-11T08:13:34.066Z,10.68
2023-04-11T08:14:27.564Z,10.63
2023-04-11T08:15:19.252Z,10.49
2023-04-11T08:16:15.046Z,10.60
2023-04-11T08:17:17.684Z,10.60
2023-04-11T08:18:21.349Z,10.56
2023-04-11T08:19:13.111Z,10.61
2023-04-11T08:20:05.630Z,10.64
2023-04-11T08:20:57.249Z,10.66
2023-04-11T08:21:48.764Z,10.64
2023-04-11T08:22:44.419Z,10.56
2023-04-11T08:23:37.173Z,10.36
2023-04-11T08:24:28.681Z,10.31
2023-04-11T08:25:23.024Z,10.36
2023-04-11T08:26:14.567Z,10.36
2023-04-11T08:27:06.936Z,10.35
2023-04-11T08:27:58.349Z,10.38
2023-04-11T08:28:50.018Z,10.39
2023-04-11T08:29:41.575Z,10.32
2023-04-11T08:30:33.290Z,10.28
2023-04-11T08:31:24.849Z,10.26
2023-04-11T08:32:16.554Z,10.13
2023-04-11T08:33:10.199Z,9.92
2023-04-11T08:34:03.167Z,9.89
2023-04-11T08:34:58.470Z,9.90
2023-04-11T08:35:50.000Z,9.96
2023-04-11T08:36:44.523Z,10.01
2023-04-11T08:37:36.001Z,10.08
2023-04-11T08:38:27.477Z,10.11
2023-04-11T08:39:18.887Z,10.13
2023-04-11T08:40:11.468Z,10.16
2023-04-11T08:41:05.719Z,10.17
2023-04-11T08:41:57.144Z,10.13
2023-04-11T08:42:48.870Z,10.20
2023-04-11T08:43:40.316Z,10.27
2023-04-11T08:44:31.774Z,10.34
2023-04-11T08:45:23.569Z,10.40
2023-04-11T08:46:15.860Z,10.49
2023-04-11T08:47:07.887Z,10.63
2023-04-11T08:48:01.148Z,10.60
2023-04-11T08:48:54.842Z,10.62
2023-04-11T08:49:46.351Z,10.72
2023-04-11T08:50:41.518Z,10.69
2023-04-11T08:51:33.154Z,10.76
2023-04-11T08:52:25.601Z,10.78
2023-04-11T08:53:18.931Z,10.86
2023-04-11T08:54:10.849Z,10.96
2023-04-11T08:55:03.531Z,11.03
2023-04-11T08:55:55.115Z,11.04
2023-04-11T08:56:47.597Z,10.98
2023-04-11T08:57:39.066Z,10.91
2023-04-11T08:58:32.993Z,10.95
2023-04-11T08:59:24.394Z,11.07
2023-04-11T09:00:19.312Z,11.08
2023-04-11T09:01:33.930Z,11.05
2023-04-11T09:02:27.791Z,11.07
2023-04-11T09:03:19.522Z,11.13
2023-04-11T09:04:13.919Z,11.07
2023-04-11T09:05:05.807Z,11.09
2023-04-11T09:05:58.863Z,11.13
2023-04-11T09:07:00.575Z,11.24
2023-04-11T09:07:52.639Z,11.26
2023-04-11T09:08:44.123Z,11.28
2023-04-11T09:09:36.895Z,11.26
2023-04-11T09:10:28.404Z,11.18
2023-04-11T09:11:19.874Z,11.14
2023-04-11T09:12:12.880Z,11.07
2023-04-11T09:13:27.198Z,10.99
2023-04-11T09:14:19.103Z,10.91
2023-04-11T09:15:27.277Z,10.81
2023-04-11T09:16:20.630Z,10.64
2023-04-11T09:17:16.849Z,10.59
2023-04-11T09:18:12.230Z,10.60
2023-04-11T09:19:04.136Z,10.57
2023-04-11T09:19:55.763Z,10.63
2023-04-11T09:21:00.644Z,10.65
2023-04-11T09:21:54.096Z,10.77
2023-04-11T09:22:49.440Z,10.91
2023-04-11T09:23:41.624Z,10.96
2023-04-11T09:24:36.789Z,11.01
2023-04-11T09:25:28.354Z,10.92
2023-04-11T09:26:27.885Z,10.85
2023-04-11T09:27:24.343Z,10.80
2023-04-11T09:28:15.960Z,10.80
2023-04-11T09:29:07.499Z,10.79
2023-04-11T09:29:59.208Z,10.82
2023-04-11T09:30:52.775Z,10.88
2023-04-11T09:31:45.718Z,10.94
2023-04-11T09:32:37.210Z,10.92
2023-04-11T09:33:29.900Z,10.88
2023-04-11T09:34:28.428Z,10.85
2023-04-11T09:35:25.175Z,10.80
2023-04-11T09:36:24.792Z,10.81
2023-04-11T09:37:17.715Z,10.81
2023-04-11T09:38:09.408Z,10.82
2023-04-11T09:39:16.899Z,10.92
2023-04-11T09:40:11.984Z,10.99
2023-04-11T09:41:04.622Z,11.01
2023-04-11T09:41:58.223Z,11.08
2023-04-11T09:43:00.333Z,11.09
2023-04-11T09:43:55.363Z,11.15
2023-04-11T09:44:49.841Z,11.15
2023-04-11T09:45:53.634Z,11.20
2023-04-11T09:46:59.760Z,11.48
2023-04-11T09:47:53.770Z,11.59
2023-04-11T09:48:46.844Z,11.68
2023-04-11T09:49:39.189Z,11.77
2023-04-11T09:50:31.794Z,11.85
2023-04-11T09:51:35.747Z,11.93
2023-04-11T09:52:31.707Z,11.96
2023-04-11T09:53:23.813Z,12.10
2023-04-11T09:54:15.940Z,12.10
2023-04-11T09:55:08.211Z,12.03
2023-04-11T09:56:00.852Z,11.97
2023-04-11T09:56:52.496Z,12.06
2023-04-11T09:57:52.536Z,12.12
2023-04-11T09:58:44.109Z,12.15
2023-04-11T09:59:40.653Z,12.20
2023-04-11T10:00:32.734Z,12.24
2023-04-11T10:01:24.900Z,12.24
2023-04-11T10:02:16.551Z,12.24
2023-04-11T10:03:08.305Z,12.25
2023-04-11T10:04:02.095Z,12.05
2023-04-11T10:04:54.704Z,12.03
2023-04-11T10:05:48.328Z,11.98
2023-04-11T10:06:53.344Z,11.88
2023-04-11T10:07:57.920Z,11.83
2023-04-11T10:08:51.412Z,11.90
2023-04-11T10:09:45.819Z,11.85
2023-04-11T10:10:37.417Z,11.89
2023-04-11T10:11:29.206Z,11.85
2023-04-11T10:12:50.562Z,11.89
2023-04-11T10:13:46.695Z,11.87
2023-04-11T10:14:38.179Z,11.91
2023-04-11T10:15:30.068Z,11.98
2023-04-11T10:16:22.903Z,12.03
2023-04-11T10:17:23.345Z,11.96
2023-04-11T10:18:15.675Z,11.94
2023-04-11T10:19:07.083Z,11.80
2023-04-11T10:19:58.513Z,11.67
2023-04-11T10:20:50.473Z,11.59
2023-04-11T10:21:44.582Z,11.57
2023-04-11T10:22:43.668Z,11.50
2023-04-11T10:24:09.041Z,11.55
2023-04-11T10:25:17.949Z,11.60
2023-04-11T10:26:14.340Z,11.69
2023-04-11T10:27:06.166Z,11.75
2023-04-11T10:28:04.822Z,11.77
2023-04-11T10:28:56.589Z,11.89
2023-04-11T10:29:52.863Z,11.94
2023-04-11T10:30:44.764Z,12.04
2023-04-11T10:32:09.422Z,11.97
2023-04-11T10:33:12.007Z,11.83
2023-04-11T10:34:15.805Z,11.81
2023-04-11T10:35:16.307Z,11.79
2023-04-11T10:36:10.729Z,11.76
2023-04-11T10:37:09.500Z,11.77
2023-04-11T10:38:01.011Z,11.79
2023-04-11T10:38:53.753Z,11.78
2023-04-11T10:39:48.345Z,11.77
2023-04-11T10:41:18.159Z,11.74
2023-04-11T10:42:31.850Z,11.78
2023-04-11T10:43:24.674Z,11.79
2023-04-11T10:44:20.931Z,11.77
2023-04-11T10:45:25.009Z,11.84
2023-04-11T10:46:17.735Z,11.91
2023-04-11T10:47:17.472Z,12.03
2023-04-11T10:48:13.447Z,12.14
2023-04-11T10:49:05.571Z,12.14
2023-04-11T10:49:58.338Z,12.16
2023-04-11T10:50:50.336Z,12.30
2023-04-11T10:51:41.994Z,12.41
2023-04-11T10:52:38.377Z,12.41
2023-04-11T10:53:36.204Z,12.31
2023-04-11T10:54:28.424Z,12.21
2023-04-11T10:55:21.392Z,12.14
2023-04-11T10:56:13.059Z,12.11
2023-04-11T10:57:04.548Z,12.17
2023-04-11T10:58:14.118Z,12.20
2023-04-11T10:59:05.951Z,12.28
2023-04-11T10:59:58.095Z,12.30
2023-04-11T11:00:49.701Z,12.31
2023-04-11T11:01:48.946Z,12.20
2023-04-11T11:02:44.258Z,12.23
2023-04-11T11:03:37.894Z,12.24
2023-04-11T11:04:40.151Z,12.22
2023-04-11T11:05:32.110Z,12.18
2023-04-11T11:06:25.726Z,12.18
2023-04-11T11:07:19.541Z,12.18
2023-04-11T11:08:14.073Z,12.17
2023-04-11T11:09:22.138Z,12.13
2023-04-11T11:10:14.020Z,12.05
2023-04-11T11:11:09.712Z,12.08
2023-04-11T11:12:10.743Z,12.05
2023-04-11T11:13:04.237Z,12.05
2023-04-11T11:13:56.488Z,12.03
2023-04-11T11:14:50.529Z,11.99
2023-04-11T11:15:50.910Z,12.00
2023-04-11T11:16:46.567Z,12.05
2023-04-11T11:17:38.367Z,12.17
2023-04-11T11:18:30.449Z,12.23
2023-04-11T11:19:21.883Z,12.26
2023-04-11T11:20:20.343Z,12.25
2023-04-11T11:21:17.100Z,12.17
2023-04-11T11:22:25.688Z,12.23
2023-04-11T11:23:17.376Z,12.28
2023-04-11T11:24:09.052Z,12.28
2023-04-11T11:25:10.446Z,12.42
2023-04-11T11:26:02.297Z,12.55
2023-04-11T11:26:55.587Z,12.65
2023-04-11T11:27:47.035Z,12.53
2023-04-11T11:28:48.905Z,12.71
2023-04-11T11:29:40.770Z,12.91
2023-04-11T11:30:33.111Z,12.96
2023-04-11T11:31:39.164Z,13.11
2023-04-11T11:32:32.788Z,13.10
2023-04-11T11:33:26.877Z,13.06
2023-04-11T11:34:31.446Z,13.09
2023-04-11T11:35:25.849Z,13.04
2023-04-11T11:36:17.557Z,13.07
2023-04-11T11:37:11.965Z,12.92
2023-04-11T11:38:08.626Z,12.86
2023-04-11T11:39:00.903Z,12.85
2023-04-11T11:39:53.945Z,12.90
2023-04-11T11:40:48.049Z,12.92
2023-04-11T11:41:41.344Z,12.98
2023-04-11T11:42:32.944Z,12.98
2023-04-11T11:43:28.235Z,13.06
2023-04-11T11:44:28.462Z,13.06
2023-04-11T11:45:22.075Z,13.16
2023-04-11T11:46:14.977Z,13.29
2023-04-11T11:47:15.349Z,13.30
2023-04-11T11:48:07.456Z,13.31
2023-04-11T11:49:08.326Z,13.31
2023-04-11T11:49:59.905Z,13.27
2023-04-11T11:50:58.225Z,13.32
2023-04-11T11:51:49.750Z,13.35
2023-04-11T11:52:53.645Z,13.31